Time;durP1;ratioP1;P1;durP2;ratioP2;P2;SDS_P1;SDS_P2;PMS_P1;PMS_P2;Temp;Humidity;BMP_temperature;BMP_pressure;BME280_temperature;BME280_humidity;BME280_pressure;Samples;Min_cycle;Max_cycle;Signal;HPM_P1;HPM_P2
2023/09/27 00:00:11;;;;;;;8.73;3.08;;;;;;;15.34;68.37;95146.75;5047186;28;20495;-70
2023/09/27 00:02:38;;;;;;;5.35;3.25;;;;;;;15.39;67.84;95147.94;5049176;28;20029;-70
2023/09/27 00:05:06;;;;;;;5.55;2.90;;;;;;;15.24;67.64;95128.50;5032768;28;20045;-70
2023/09/27 00:07:33;;;;;;;8.60;4.00;;;;;;;15.47;67.84;95149.84;5049811;28;20047;-70
2023/09/27 00:09:58;;;;;;;7.38;2.95;;;;;;;15.51;68.00;95143.31;5049523;28;20033;-70
2023/09/27 00:12:24;;;;;;;7.18;3.03;;;;;;;15.45;67.72;95145.72;5051954;28;20029;-70
2023/09/27 00:14:49;;;;;;;9.60;3.38;;;;;;;15.44;67.95;95146.69;5033404;28;20443;-70
2023/09/27 00:17:14;;;;;;;11.02;3.20;;;;;;;15.57;67.84;95147.13;5037878;28;20504;-70
2023/09/27 00:19:41;;;;;;;8.07;3.20;;;;;;;15.54;67.33;95135.16;5054603;28;20033;-70
2023/09/27 00:22:08;;;;;;;9.27;3.50;;;;;;;15.41;67.85;95132.13;5036797;28;20075;-70
2023/09/27 00:24:34;;;;;;;9.30;3.95;;;;;;;15.39;68.08;95137.47;5054505;28;20063;-70
2023/09/27 00:39:29;;;;;;;8.75;4.22;;;;;;;15.86;66.54;95128.59;5143369;27;20396;-72
2023/09/27 00:41:55;;;;;;;9.02;3.47;;;;;;;15.81;66.46;95120.38;5149558;27;20066;-72
2023/09/27 00:44:20;;;;;;;8.23;3.30;;;;;;;15.65;66.76;95103.50;5129299;28;20035;-72
2023/09/27 00:46:46;;;;;;;8.73;3.70;;;;;;;15.63;67.05;95110.72;5127783;28;20027;-72
2023/09/27 00:49:11;;;;;;;9.25;3.58;;;;;;;15.58;67.49;95122.63;5134499;27;20035;-72
2023/09/27 00:51:36;;;;;;;10.75;3.40;;;;;;;15.19;68.19;95076.59;5126637;28;20032;-72
2023/09/27 00:54:02;;;;;;;7.57;3.13;;;;;;;15.61;67.69;95120.50;5110421;28;20031;-72
2023/09/27 00:56:27;;;;;;;8.38;3.50;;;;;;;15.60;67.52;95118.88;5106113;28;20462;-72
2023/09/27 00:58:53;;;;;;;8.82;3.80;;;;;;;15.56;67.59;95117.50;5105763;28;20390;-72
2023/09/27 01:01:18;;;;;;;6.57;3.45;;;;;;;15.64;67.61;95125.44;5123833;28;20023;-72
2023/09/27 01:03:44;;;;;;;6.22;3.58;;;;;;;15.59;66.96;95109.34;5107057;28;20036;-71
2023/09/27 01:06:09;;;;;;;8.77;3.30;;;;;;;15.56;67.45;95125.38;5117337;28;20031;-72
2023/09/27 01:08:34;;;;;;;6.38;4.25;;;;;;;15.50;67.78;95125.97;5127365;28;20477;-72
2023/09/27 01:11:01;;;;;;;7.78;3.53;;;;;;;15.47;67.84;95112.38;5127193;28;20031;-71
2023/09/27 01:13:26;;;;;;;8.43;3.38;;;;;;;15.52;67.89;95128.44;5109808;28;20036;-72
2023/09/27 01:15:51;;;;;;;7.10;3.47;;;;;;;15.60;67.58;95120.63;5126135;28;20064;-71
2023/09/27 01:18:17;;;;;;;7.18;3.47;;;;;;;15.55;67.73;95128.97;5128239;27;20031;-72
2023/09/27 01:20:42;;;;;;;6.50;3.78;;;;;;;15.54;67.49;95122.06;5127348;27;20023;-71
2023/09/27 01:23:07;;;;;;;10.45;3.65;;;;;;;15.57;67.60;95124.41;5125679;27;20034;-71
2023/09/27 01:25:34;;;;;;;6.03;3.40;;;;;;;15.37;67.53;95089.69;5128214;27;20035;-72
2023/09/27 01:28:01;;;;;;;7.50;3.30;;;;;;;15.58;67.00;95123.44;5126303;28;20088;-72
2023/09/27 01:30:32;;;;;;;6.30;3.35;;;;;;;15.52;67.62;95112.75;5109956;28;20023;-72
2023/09/27 01:33:04;;;;;;;8.52;3.55;;;;;;;15.40;67.70;95104.28;5125296;27;20110;-72
2023/09/27 01:35:29;;;;;;;5.15;3.40;;;;;;;15.40;67.99;95118.19;5110240;28;20028;-72
2023/09/27 01:37:55;;;;;;;7.00;3.60;;;;;;;15.43;68.42;95119.69;5127792;27;20062;-72
2023/09/27 01:40:23;;;;;;;7.55;3.30;;;;;;;15.39;68.16;95113.09;5096383;28;20488;-72
2023/09/27 01:42:49;;;;;;;7.18;3.33;;;;;;;15.46;67.62;95123.78;5111763;28;20169;-72
2023/09/27 01:45:14;;;;;;;8.77;3.70;;;;;;;15.40;67.93;95114.75;5114244;28;20019;-72
2023/09/27 01:47:40;;;;;;;7.07;3.20;;;;;;;15.35;68.02;95117.81;5114081;28;20504;-72
2023/09/27 01:50:09;;;;;;;6.93;3.10;;;;;;;15.43;67.75;95111.81;5112859;28;20508;-72
2023/09/27 01:52:34;;;;;;;5.85;3.17;;;;;;;15.41;67.23;95105.94;5112437;28;20644;-72
2023/09/27 01:55:00;;;;;;;7.35;3.20;;;;;;;15.41;67.45;95113.78;5095764;28;20024;-71
2023/09/27 01:57:25;;;;;;;9.40;3.30;;;;;;;15.45;67.20;95112.50;5114037;28;20492;-72
2023/09/27 01:59:50;;;;;;;9.18;3.78;;;;;;;15.39;67.19;95102.63;5112428;28;20036;-72
2023/09/27 02:02:16;;;;;;;7.38;3.50;;;;;;;15.31;67.38;95105.16;5113873;27;20058;-72
2023/09/27 02:04:41;;;;;;;7.38;3.35;;;;;;;15.29;67.41;95107.94;5113356;28;20032;-71
2023/09/27 02:07:07;;;;;;;5.88;3.08;;;;;;;15.39;66.88;95113.09;5112457;28;20424;-72
2023/09/27 02:09:32;;;;;;;9.48;3.50;;;;;;;15.30;67.25;95114.81;5112402;28;20032;-72
2023/09/27 02:11:58;;;;;;;9.32;3.38;;;;;;;15.10;67.38;95110.66;5113310;27;20392;-71
2023/09/27 02:14:23;;;;;;;8.88;3.20;;;;;;;15.13;67.66;95113.84;5112248;28;20028;-72
2023/09/27 02:16:49;;;;;;;6.18;3.00;;;;;;;15.03;67.74;95107.00;5113069;28;20024;-72
2023/09/27 02:19:14;;;;;;;6.43;3.40;;;;;;;15.13;67.34;95099.94;5111856;28;20089;-72
2023/09/27 02:21:39;;;;;;;5.05;3.50;;;;;;;15.11;67.51;95115.78;5112239;28;20472;-71
2023/09/27 02:24:09;;;;;;;6.95;3.53;;;;;;;15.14;67.54;95118.09;5112786;28;20042;-71
2023/09/27 02:26:34;;;;;;;8.70;3.17;;;;;;;14.98;67.48;95100.41;5110840;28;20027;-72
2023/09/27 02:29:00;;;;;;;10.57;3.38;;;;;;;15.11;67.27;95115.78;5113074;28;20523;-72
2023/09/27 02:31:25;;;;;;;6.38;3.22;;;;;;;14.81;67.73;95076.84;5113333;28;20038;-72
2023/09/27 02:33:51;;;;;;;5.70;3.25;;;;;;;14.98;67.71;95105.66;5111979;28;20040;-72
2023/09/27 02:36:16;;;;;;;11.25;3.38;;;;;;;14.96;67.93;95117.25;5111611;28;20035;-72
2023/09/27 02:38:42;;;;;;;6.85;2.95;;;;;;;15.10;67.66;95113.28;5113082;28;20112;-72
2023/09/27 02:41:07;;;;;;;7.80;3.60;;;;;;;14.74;67.71;95098.38;5112112;28;20030;-72
2023/09/27 02:43:33;;;;;;;6.65;3.53;;;;;;;14.72;68.30;95117.78;5112743;28;20085;-72
2023/09/27 02:45:58;;;;;;;4.88;2.90;;;;;;;14.73;68.04;95117.63;5109449;28;20031;-72
2023/09/27 02:48:24;;;;;;;7.38;3.33;;;;;;;14.79;67.89;95124.06;5091392;28;20040;-72
2023/09/27 02:50:50;;;;;;;5.65;3.13;;;;;;;14.72;67.96;95113.38;5107564;28;20028;-72
2023/09/27 02:53:16;;;;;;;5.00;3.50;;;;;;;14.69;67.83;95118.06;5073928;28;20036;-72
2023/09/27 02:55:42;;;;;;;6.30;3.10;;;;;;;14.71;67.75;95129.22;5106863;28;20547;-72
2023/09/27 02:58:07;;;;;;;4.80;2.95;;;;;;;14.08;69.33;95119.34;5091031;28;20073;-72
2023/09/27 03:00:33;;;;;;;6.78;3.47;;;;;;;14.41;68.20;95132.88;5092273;28;20024;-71
2023/09/27 03:03:01;;;;;;;6.57;3.20;;;;;;;14.46;68.56;95134.09;5074659;28;20028;-72
2023/09/27 03:05:26;;;;;;;6.35;3.22;;;;;;;14.28;69.50;95130.56;5110724;28;20032;-72
2023/09/27 03:07:52;;;;;;;5.20;3.25;;;;;;;14.22;69.65;95134.56;5112580;28;20036;-72
2023/09/27 03:10:18;;;;;;;5.57;3.38;;;;;;;14.15;70.08;95127.44;5110964;28;20504;-72
2023/09/27 03:12:45;;;;;;;6.38;3.47;;;;;;;14.17;70.19;95131.53;5093432;28;20178;-72
2023/09/27 03:15:11;;;;;;;6.03;3.47;;;;;;;14.23;69.96;95138.81;5074235;28;20028;-72
2023/09/27 03:17:37;;;;;;;7.47;3.55;;;;;;;14.23;69.95;95135.38;5090715;28;20078;-72
2023/09/27 03:20:07;;;;;;;5.22;3.05;;;;;;;14.22;70.17;95128.53;5108665;28;20408;-72
2023/09/27 03:22:32;;;;;;;5.70;3.30;;;;;;;14.19;69.87;95137.47;5110694;28;20046;-72
2023/09/27 03:24:57;;;;;;;10.18;4.13;;;;;;;14.12;69.73;95133.75;5112226;28;20428;-72
2023/09/27 03:27:23;;;;;;;5.40;3.38;;;;;;;14.19;70.29;95139.25;5127423;27;20032;-72
2023/09/27 03:29:48;;;;;;;5.93;3.28;;;;;;;13.89;70.68;95107.13;5112207;28;20016;-71
2023/09/27 03:32:14;;;;;;;6.55;3.50;;;;;;;14.08;70.31;95137.63;5110662;28;20043;-72
2023/09/27 03:34:39;;;;;;;6.80;3.45;;;;;;;13.94;70.27;95123.22;5111800;28;20027;-72
2023/09/27 03:37:05;;;;;;;4.47;3.35;;;;;;;14.05;70.30;95132.69;5111751;28;20031;-72
2023/09/27 03:39:35;;;;;;;5.95;3.35;;;;;;;13.97;70.48;95136.00;5092431;28;20023;-73
2023/09/27 03:42:03;;;;;;;7.05;3.55;;;;;;;14.02;70.58;95138.19;5094502;28;20036;-72
2023/09/27 03:44:29;;;;;;;7.40;3.42;;;;;;;13.98;70.36;95144.66;5111208;28;20081;-72
2023/09/27 03:46:55;;;;;;;6.18;3.67;;;;;;;13.88;70.59;95131.63;5110211;28;20039;-72
2023/09/27 03:49:21;;;;;;;8.65;3.38;;;;;;;13.92;70.57;95148.63;5108612;28;20425;-73
2023/09/27 03:51:46;;;;;;;8.80;3.60;;;;;;;13.81;70.70;95135.72;5110490;28;20027;-72
2023/09/27 03:54:11;;;;;;;7.68;3.70;;;;;;;13.93;70.59;95145.09;5111565;28;20412;-72
2023/09/27 03:56:37;;;;;;;9.40;3.65;;;;;;;13.83;71.00;95139.84;5108547;28;20034;-72
2023/09/27 03:59:02;;;;;;;6.75;3.10;;;;;;;13.94;70.74;95151.13;5110236;28;20035;-72
2023/09/27 04:01:28;;;;;;;5.82;3.40;;;;;;;13.82;70.92;95148.66;5108266;28;20477;-72
2023/09/27 04:03:54;;;;;;;7.47;3.20;;;;;;;13.86;70.73;95138.75;5109485;28;20055;-72
2023/09/27 04:06:20;;;;;;;6.40;3.40;;;;;;;13.83;70.78;95149.47;5111406;28;20507;-72
2023/09/27 04:08:45;;;;;;;8.30;3.70;;;;;;;13.86;70.35;95144.78;5108860;28;20386;-72
2023/09/27 04:11:10;;;;;;;8.05;3.05;;;;;;;13.99;70.38;95148.94;5111313;28;20026;-72
2023/09/27 04:13:36;;;;;;;7.75;3.40;;;;;;;14.05;69.97;95158.81;5110048;28;20084;-72
2023/09/27 04:16:01;;;;;;;9.35;3.60;;;;;;;13.96;70.23;95164.88;5111534;28;20469;-73
2023/09/27 04:18:27;;;;;;;6.20;3.50;;;;;;;13.89;70.53;95158.53;5093277;28;20039;-72
2023/09/27 04:20:53;;;;;;;9.63;3.53;;;;;;;13.85;70.39;95150.19;5092580;28;20512;-73
2023/09/27 04:23:18;;;;;;;6.40;3.15;;;;;;;13.23;72.17;95162.59;5093222;28;20036;-73
2023/09/27 04:25:43;;;;;;;8.50;3.50;;;;;;;13.45;71.07;95163.34;5111303;28;20050;-73
2023/09/27 04:28:10;;;;;;;6.95;3.60;;;;;;;13.45;71.50;95158.94;5109463;28;20039;-73
2023/09/27 04:30:35;;;;;;;5.50;3.20;;;;;;;13.65;71.50;95172.84;5109862;28;20050;-73
2023/09/27 04:33:01;;;;;;;6.22;3.45;;;;;;;13.56;71.45;95153.59;5110009;28;20031;-73
2023/09/27 04:35:26;;;;;;;5.07;3.33;;;;;;;13.27;72.01;95124.06;5089346;28;20097;-72
2023/09/27 04:37:51;;;;;;;5.20;3.45;;;;;;;13.63;71.67;95167.75;5104867;28;20570;-72
2023/09/27 04:40:17;;;;;;;11.00;3.80;;;;;;;13.50;71.09;95174.22;5113808;28;20038;-72
2023/09/27 04:42:43;;;;;;;5.28;3.42;;;;;;;13.39;71.83;95168.16;5096118;28;20102;-73
2023/09/27 04:45:12;;;;;;;8.60;4.13;;;;;;;13.28;72.11;95155.22;5109365;28;20024;-73
2023/09/27 04:47:39;;;;;;;8.65;4.57;;;;;;;13.38;72.57;95187.38;5090833;28;20059;-73
2023/09/27 04:50:15;;;;;;;6.45;3.88;;;;;;;13.39;72.13;95177.75;5109425;28;20411;-73
2023/09/27 04:52:40;;;;;;;7.40;3.65;;;;;;;13.31;72.34;95180.22;5092214;28;20485;-73
2023/09/27 04:55:07;;;;;;;6.88;3.90;;;;;;;13.37;72.59;95177.91;5092728;28;20063;-73
2023/09/27 04:57:32;;;;;;;6.72;3.72;;;;;;;13.48;72.66;95178.72;5108725;28;20431;-73
2023/09/27 04:59:58;;;;;;;8.77;3.80;;;;;;;13.56;71.98;95178.88;5074585;28;20027;-72
2023/09/27 05:02:24;;;;;;;6.55;3.80;;;;;;;13.53;72.16;95160.88;5108490;28;20489;-73
2023/09/27 05:04:49;;;;;;;5.30;3.60;;;;;;;13.67;71.79;95176.13;5090603;28;20019;-73
2023/09/27 05:07:19;;;;;;;8.95;3.55;;;;;;;13.67;71.71;95168.31;5107265;28;20108;-73
2023/09/27 05:09:45;;;;;;;6.72;3.80;;;;;;;13.78;71.76;95178.59;5107659;28;20023;-72
2023/09/27 05:12:12;;;;;;;10.07;3.53;;;;;;;13.81;72.61;95174.91;5107156;28;20470;-73
2023/09/27 05:14:37;;;;;;;5.80;3.38;;;;;;;13.86;72.84;95178.75;5075276;28;20059;-72
2023/09/27 05:17:03;;;;;;;9.95;3.78;;;;;;;13.97;72.34;95167.34;5112620;28;20428;-72
2023/09/27 05:19:28;;;;;;;8.30;3.88;;;;;;;14.03;72.57;95179.00;5111131;28;20023;-73
2023/09/27 05:21:54;;;;;;;7.20;3.38;;;;;;;14.00;72.82;95181.91;5112499;28;20026;-73
2023/09/27 05:24:19;;;;;;;5.68;3.80;;;;;;;14.04;73.05;95186.72;5112762;28;20032;-73
2023/09/27 05:26:44;;;;;;;7.55;3.67;;;;;;;14.37;72.51;95189.00;5112637;28;20027;-73
2023/09/27 05:29:13;;;;;;;6.40;3.70;;;;;;;14.54;71.98;95183.06;5112854;27;20028;-71
2023/09/27 05:31:43;;;;;;;11.63;4.03;;;;;;;14.56;70.45;95172.47;5095439;28;20119;-73
2023/09/27 05:34:08;;;;;;;5.35;3.35;;;;;;;14.65;71.50;95187.28;5111926;28;20035;-73
2023/09/27 05:36:34;;;;;;;6.65;4.18;;;;;;;14.87;71.17;95173.03;5096183;28;20023;-73
2023/09/27 05:39:04;;;;;;;7.95;3.65;;;;;;;15.26;70.37;95176.25;5078020;28;20074;-73
2023/09/27 05:41:29;;;;;;;6.40;3.75;;;;;;;15.55;69.51;95176.09;5096411;28;20035;-73
2023/09/27 05:43:55;;;;;;;9.93;3.65;;;;;;;15.96;68.46;95183.53;5112770;28;20493;-73
2023/09/27 05:46:21;;;;;;;8.30;4.13;;;;;;;16.14;67.76;95188.75;5112694;28;20027;-72
2023/09/27 05:48:46;;;;;;;7.05;3.60;;;;;;;16.39;67.38;95174.84;5114309;27;20032;-73
2023/09/27 05:51:13;;;;;;;7.70;4.25;;;;;;;16.73;66.18;95176.69;5114988;27;20036;-73
2023/09/27 05:53:38;;;;;;;7.43;3.60;;;;;;;16.96;65.94;95180.41;5094627;28;20070;-72
2023/09/27 05:56:03;;;;;;;6.20;3.47;;;;;;;17.53;63.23;95185.06;5113979;28;20035;-73
2023/09/27 05:58:34;;;;;;;5.93;3.30;;;;;;;18.12;61.51;95182.38;5074867;28;20028;-73
2023/09/27 06:01:00;;;;;;;6.38;3.20;;;;;;;18.37;59.76;95172.66;5076202;28;20459;-73
2023/09/27 06:03:26;;;;;;;5.03;3.28;;;;;;;18.91;59.67;95172.06;5113450;28;20084;-72
2023/09/27 06:05:51;;;;;;;7.75;3.58;;;;;;;19.46;57.64;95184.34;5112291;28;20416;-73
2023/09/27 06:08:16;;;;;;;5.97;3.30;;;;;;;19.93;56.34;95191.34;5111685;28;20042;-73
2023/09/27 06:10:42;;;;;;;5.15;3.30;;;;;;;20.28;53.39;95197.00;5113933;27;20030;-73
2023/09/27 06:13:08;;;;;;;5.47;3.13;;;;;;;20.89;52.69;95192.50;5117768;27;20024;-73
2023/09/27 06:15:33;;;;;;;6.35;3.00;;;;;;;21.24;52.00;95189.31;5133023;27;20035;-73
2023/09/27 06:18:00;;;;;;;8.00;3.65;;;;;;;21.26;49.94;95177.56;5123912;27;20496;-71
2023/09/27 06:20:29;;;;;;;8.02;3.50;;;;;;;21.88;47.49;95196.59;5121116;27;20034;-71
2023/09/27 06:22:57;;;;;;;8.82;3.60;;;;;;;22.18;46.51;95187.56;5117738;27;20225;-71
2023/09/27 06:25:29;;;;;;;4.80;3.10;;;;;;;23.01;44.34;95187.78;5108271;27;20035;-72
2023/09/27 06:27:54;;;;;;;8.32;3.00;;;;;;;23.45;42.63;95188.44;5110871;27;20044;-71
2023/09/27 06:30:22;;;;;;;7.82;3.47;;;;;;;23.38;43.34;95185.75;5111012;28;20092;-72
2023/09/27 06:32:48;;;;;;;10.70;2.83;;;;;;;23.69;43.34;95190.56;5093021;28;20085;-72
2023/09/27 06:35:14;;;;;;;5.50;3.20;;;;;;;24.20;42.44;95190.09;5111974;28;20035;-72
2023/09/27 06:37:40;;;;;;;7.03;3.00;;;;;;;23.70;42.67;95202.78;5111488;28;20134;-72
2023/09/27 06:40:09;;;;;;;8.68;3.40;;;;;;;23.58;42.08;95189.31;5112115;28;20043;-71
2023/09/27 06:42:35;;;;;;;7.00;3.17;;;;;;;23.11;42.59;95195.41;5092999;28;20566;-72
2023/09/27 06:45:01;;;;;;;5.97;3.05;;;;;;;22.74;42.93;95195.56;5092767;28;20103;-73
2023/09/27 06:47:27;;;;;;;6.70;3.08;;;;;;;22.42;42.73;95196.09;5109682;28;20497;-72
2023/09/27 06:49:54;;;;;;;5.78;2.83;;;;;;;21.75;42.66;95191.97;5076051;28;20023;-72
2023/09/27 06:52:20;;;;;;;5.90;3.00;;;;;;;22.06;44.12;95194.31;5109379;28;20032;-71
2023/09/27 06:54:45;;;;;;;8.07;2.78;;;;;;;21.99;43.84;95193.47;5110742;28;20315;-71
2023/09/27 06:57:11;;;;;;;5.80;3.10;;;;;;;21.95;43.24;95193.00;5110852;28;20035;-71
2023/09/27 06:59:36;;;;;;;7.13;3.05;;;;;;;21.77;44.58;95201.38;5111583;28;20450;-71
2023/09/27 07:02:02;;;;;;;8.80;2.92;;;;;;;21.48;44.84;95204.06;5111461;28;20116;-71
2023/09/27 07:04:27;;;;;;;7.55;2.90;;;;;;;21.35;45.18;95207.34;5111459;28;20081;-71
2023/09/27 07:06:52;;;;;;;10.18;3.15;;;;;;;21.36;45.29;95207.16;5112875;28;20028;-71
2023/09/27 07:09:20;;;;;;;6.57;3.22;;;;;;;21.22;45.81;95215.91;5111277;28;20024;-72
2023/09/27 07:11:45;;;;;;;8.05;2.83;;;;;;;21.28;45.45;95209.06;5112484;28;20024;-72
2023/09/27 07:14:12;;;;;;;6.22;3.10;;;;;;;21.19;45.99;95209.16;5111055;28;20088;-71
2023/09/27 07:16:37;;;;;;;6.43;2.90;;;;;;;21.31;45.96;95196.34;5111116;28;20100;-71
2023/09/27 07:19:05;;;;;;;5.50;3.30;;;;;;;21.51;45.29;95211.66;5111053;28;20462;-72
2023/09/27 07:21:31;;;;;;;5.63;2.95;;;;;;;21.60;44.76;95211.34;5110972;28;20114;-71
2023/09/27 09:01:42;;;;;;;6.18;2.97;;;;;;;22.82;38.90;95152.22;5108392;27;20375;-71
2023/09/27 09:04:08;;;;;;;11.82;2.67;;;;;;;22.61;39.09;95168.16;5108494;28;20479;-70
2023/09/27 09:06:33;;;;;;;6.32;2.65;;;;;;;22.67;38.38;95178.78;5108556;28;20024;-70
2023/09/27 09:09:10;;;;;;;8.95;3.03;;;;;;;22.63;38.67;95159.03;5108417;28;20031;-71
2023/09/27 09:11:38;;;;;;;12.55;3.45;;;;;;;22.61;39.77;95170.81;5107333;28;20032;-71
2023/09/27 09:14:06;;;;;;;9.85;2.85;;;;;;;22.55;39.48;95169.75;5106993;28;20035;-70
2023/09/27 09:16:39;;;;;;;7.93;3.45;;;;;;;22.60;39.50;95167.34;5108316;28;20477;-71
2023/09/27 09:19:31;;;;;;;7.40;2.88;;;;;;;22.81;39.75;95165.66;5090970;28;20339;-71
2023/09/27 09:22:11;;;;;;;7.22;2.60;;;;;;;22.75;39.56;95156.66;5088069;28;20040;-71
2023/09/27 09:24:36;;;;;;;4.57;2.38;;;;;;;22.60;39.96;95169.19;5090666;28;20059;-70
2023/09/27 09:27:07;;;;;;;7.05;2.60;;;;;;;22.63;39.29;95155.56;5090039;28;20454;-71
2023/09/27 09:29:46;;;;;;;5.80;2.50;;;;;;;22.55;39.95;95158.34;5107873;28;20060;-70
2023/09/27 09:32:30;;;;;;;12.93;2.80;;;;;;;22.65;39.68;95156.16;5089917;28;20024;-71
2023/09/27 09:34:55;;;;;;;9.73;2.60;;;;;;;22.78;38.15;95155.44;5089714;28;20024;-71
2023/09/27 09:37:29;;;;;;;4.88;2.78;;;;;;;22.74;39.08;95150.53;5106678;28;20032;-71
2023/09/27 09:40:13;;;;;;;6.85;3.20;;;;;;;22.95;38.37;95157.59;5106862;28;20097;-70
2023/09/27 09:42:38;;;;;;;6.40;2.83;;;;;;;22.58;39.26;95144.72;5090788;28;20055;-70
2023/09/27 09:45:10;;;;;;;5.00;2.58;;;;;;;22.53;38.84;95154.03;5106594;28;20404;-71
2023/09/27 09:47:36;;;;;;;6.55;2.45;;;;;;;22.24;38.89;95152.41;5090434;28;20031;-70
2023/09/27 09:50:06;;;;;;;8.38;2.63;;;;;;;22.39;38.40;95140.91;5089388;28;20050;-70
2023/09/27 09:52:32;;;;;;;5.13;2.33;;;;;;;22.56;38.55;95146.75;5089669;28;20062;-71
2023/09/27 09:54:58;;;;;;;8.05;2.80;;;;;;;22.43;38.74;95153.59;5089567;28;20028;-70
2023/09/27 09:57:35;;;;;;;9.23;2.65;;;;;;;22.33;39.53;95139.03;5107558;28;20417;-71
2023/09/27 10:00:16;;;;;;;7.63;2.70;;;;;;;22.33;39.21;95117.88;5107237;28;20060;-71
2023/09/27 10:02:47;;;;;;;8.32;2.65;;;;;;;22.48;38.87;95139.75;5076576;28;20028;-71
2023/09/27 10:05:13;;;;;;;9.27;2.72;;;;;;;22.49;39.00;95138.78;5094086;28;20070;-71
2023/09/27 10:07:40;;;;;;;4.90;2.95;;;;;;;22.55;38.90;95135.34;5092627;28;20405;-71
2023/09/27 10:10:06;;;;;;;5.53;3.03;;;;;;;22.72;38.50;95123.44;5075893;28;20118;-70
2023/09/27 10:12:31;;;;;;;7.07;2.35;;;;;;;22.58;39.48;95127.00;5058858;28;20035;-70
2023/09/27 10:14:57;;;;;;;4.32;2.20;;;;;;;22.54;39.41;95125.78;5075527;28;20098;-70
2023/09/27 10:17:25;;;;;;;6.03;2.90;;;;;;;22.77;38.99;95132.63;5075575;28;20031;-71
2023/09/27 10:20:12;;;;;;;7.18;2.53;;;;;;;22.55;38.53;95127.41;5075806;28;20439;-70
2023/09/27 10:22:42;;;;;;;5.03;2.60;;;;;;;22.34;39.95;95122.97;5092260;28;20517;-73
2023/09/27 10:25:30;;;;;;;12.75;3.40;;;;;;;22.44;39.73;95123.44;5093787;28;20032;-73
2023/09/27 10:28:01;;;;;;;8.35;2.50;;;;;;;22.69;39.55;95109.78;5093413;28;20021;-71
2023/09/27 10:30:27;;;;;;;7.20;2.60;;;;;;;22.69;39.45;95100.00;5093605;28;20404;-70
2023/09/27 10:33:14;;;;;;;7.32;2.65;;;;;;;22.70;37.91;95108.75;5092135;28;20484;-71
2023/09/27 10:35:40;;;;;;;9.35;2.78;;;;;;;22.71;38.72;95097.16;5093633;28;20066;-70
2023/09/27 10:38:09;;;;;;;7.82;2.75;;;;;;;22.62;38.75;95101.81;5092045;28;20096;-71
2023/09/27 10:40:44;;;;;;;8.20;2.30;;;;;;;22.57;38.77;95101.56;5092101;28;20409;-70
2023/09/27 10:43:11;;;;;;;5.53;2.28;;;;;;;22.32;38.80;95097.72;5075214;28;20550;-71
2023/09/27 10:45:36;;;;;;;5.65;2.60;;;;;;;22.59;38.54;95098.69;5075232;28;20051;-70
2023/09/27 10:48:18;;;;;;;7.28;2.33;;;;;;;22.37;37.64;95106.72;5093002;28;20485;-71
2023/09/27 10:50:54;;;;;;;6.25;2.30;;;;;;;22.34;37.69;95107.09;5091835;28;20047;-71
2023/09/27 10:53:20;;;;;;;10.63;8.43;;;;;;;22.50;37.89;95098.03;5091712;28;20024;-72
2023/09/27 10:55:45;;;;;;;7.40;2.30;;;;;;;22.38;37.98;95096.97;5093249;28;20406;-70
2023/09/27 10:58:17;;;;;;;5.10;2.70;;;;;;;22.08;39.77;95094.44;5091656;28;20027;-71
2023/09/27 11:00:53;;;;;;;9.27;2.88;;;;;;;22.11;40.73;95085.31;5075101;28;20055;-73
2023/09/27 11:03:19;;;;;;;7.47;2.70;;;;;;;22.17;40.86;95090.66;5075039;28;20409;-73
2023/09/27 11:05:44;;;;;;;9.10;2.55;;;;;;;22.26;40.84;95089.56;5074673;28;20030;-73
2023/09/27 11:08:10;;;;;;;10.50;3.38;;;;;;;22.31;40.97;95081.00;5074473;28;20020;-70
2023/09/27 11:10:35;;;;;;;6.05;2.85;;;;;;;22.31;40.65;95078.38;5074597;28;20028;-71
2023/09/27 11:13:09;;;;;;;7.68;2.80;;;;;;;22.32;41.31;95066.78;5090338;28;20024;-70
2023/09/27 11:15:36;;;;;;;6.75;2.95;;;;;;;22.46;41.03;95080.94;5074870;28;20046;-70
2023/09/27 11:18:04;;;;;;;9.73;2.72;;;;;;;22.35;39.87;95076.19;5092751;28;20462;-70
2023/09/27 11:20:29;;;;;;;7.82;2.65;;;;;;;22.32;40.19;95071.28;5092755;28;20044;-70
2023/09/27 11:22:58;;;;;;;8.35;3.03;;;;;;;22.35;40.51;95076.19;5091098;28;20541;-70
2023/09/27 11:25:34;;;;;;;11.68;2.90;;;;;;;22.35;40.81;95076.19;5074323;28;20457;-70
2023/09/27 11:28:00;;;;;;;8.77;2.83;;;;;;;22.14;41.00;95043.41;5074359;28;20028;-70
2023/09/27 11:30:32;;;;;;;7.90;3.20;;;;;;;22.31;41.10;95073.06;5074104;28;20039;-70
2023/09/27 11:32:59;;;;;;;8.70;2.60;;;;;;;22.32;41.36;95066.78;5092076;28;20027;-71
2023/09/27 11:35:25;;;;;;;4.95;2.65;;;;;;;22.38;41.14;95073.94;5073989;28;20024;-71
2023/09/27 11:38:25;;;;;;;4.75;2.60;;;;;;;22.49;40.74;95068.13;5090803;28;20032;-70
2023/09/27 11:40:53;;;;;;;7.65;2.80;;;;;;;22.42;41.52;95074.38;5079970;28;20063;-70
2023/09/27 11:43:19;;;;;;;6.32;2.75;;;;;;;22.26;42.07;95060.44;5090729;28;20477;-70
2023/09/27 11:45:45;;;;;;;6.45;2.70;;;;;;;22.45;42.10;95074.78;5090814;28;20039;-70
2023/09/27 11:48:11;;;;;;;8.82;3.00;;;;;;;22.29;42.44;95067.19;5090554;28;20045;-70
2023/09/27 11:50:37;;;;;;;6.97;2.60;;;;;;;22.16;42.76;95075.78;5073893;28;20329;-70
2023/09/27 11:53:03;;;;;;;7.00;2.60;;;;;;;22.16;42.33;95078.44;5091731;28;20028;-70
2023/09/27 11:55:28;;;;;;;9.13;2.97;;;;;;;21.96;43.25;95077.47;5092179;28;20063;-72
2023/09/27 11:58:12;;;;;;;8.20;3.45;;;;;;;22.12;43.36;95066.63;5090519;28;20481;-70
2023/09/27 12:00:38;;;;;;;6.30;2.92;;;;;;;21.98;43.13;95071.00;5091441;28;20052;-71
2023/09/27 12:03:04;;;;;;;6.47;2.75;;;;;;;22.00;43.44;95063.66;5090275;28;20024;-70
2023/09/27 12:05:30;;;;;;;8.18;3.00;;;;;;;22.21;42.94;95059.38;5090218;28;20032;-70
2023/09/27 12:07:55;;;;;;;8.90;2.97;;;;;;;22.24;42.86;95062.47;5090303;28;20542;-70
2023/09/27 12:10:39;;;;;;;6.35;2.88;;;;;;;22.37;42.30;95064.38;5091720;28;20029;-71
2023/09/27 12:13:23;;;;;;;14.48;3.20;;;;;;;22.20;42.26;95053.25;5091447;28;20148;-70
2023/09/27 12:15:49;;;;;;;5.60;2.70;;;;;;;22.53;42.18;95042.06;5090493;28;20117;-70
2023/09/27 12:20:58;;;;;;;9.55;3.00;;;;;;;22.77;42.33;95050.56;5091702;28;20074;-70
2023/09/27 12:23:44;;;;;;;5.70;2.80;;;;;;;22.94;41.42;95057.13;5073144;28;20044;-70
2023/09/27 12:26:09;;;;;;;12.52;3.00;;;;;;;22.87;41.46;95057.13;5073202;28;20044;-70
2023/09/27 12:34:21;;;;;;;6.25;2.90;;;;;;;23.39;40.48;95046.91;5091050;28;20047;-70
2023/09/27 12:36:50;;;;;;;7.97;3.05;;;;;;;23.12;40.62;95051.31;5091159;28;20024;-71
2023/09/27 12:39:34;;;;;;;5.45;2.67;;;;;;;23.04;40.82;95040.88;5089839;28;20483;-70
2023/09/27 12:42:01;;;;;;;7.10;3.35;;;;;;;23.04;40.60;95047.03;5091412;28;20062;-70
2023/09/27 12:44:26;;;;;;;6.78;2.97;;;;;;;23.09;41.03;95044.56;5091132;28;20497;-70
2023/09/27 12:46:52;;;;;;;8.13;3.17;;;;;;;23.02;40.59;95049.06;5089796;28;20024;-71
2023/09/27 12:49:18;;;;;;;9.27;2.97;;;;;;;22.87;41.15;95043.03;5090774;28;20036;-72
2023/09/27 12:54:28;;;;;;;6.47;3.30;;;;;;;22.80;41.14;95036.91;5091242;28;20035;-71
2023/09/27 12:56:54;;;;;;;5.95;3.22;;;;;;;22.70;41.60;95045.19;5090969;28;20024;-70
2023/09/27 12:59:38;;;;;;;7.63;3.45;;;;;;;22.57;42.72;95032.75;5072717;28;20097;-70
2023/09/27 13:02:04;;;;;;;12.05;3.72;;;;;;;22.42;42.84;95037.31;5089494;28;20113;-72
2023/09/27 13:12:41;;;;;;;8.55;3.30;;;;;;;22.36;43.44;95049.50;5089771;28;20516;-70
2023/09/27 13:17:51;;;;;;;8.38;3.45;;;;;;;22.28;43.80;95058.41;5090702;28;20101;-71
2023/09/27 13:20:16;;;;;;;8.13;3.20;;;;;;;22.17;44.50;95044.88;5089420;28;20484;-70
2023/09/27 13:23:00;;;;;;;6.20;3.25;;;;;;;22.22;43.32;95055.72;5090689;28;20055;-70
2023/09/27 13:25:44;;;;;;;9.52;3.10;;;;;;;22.13;42.82;95055.03;5090967;28;20036;-70
2023/09/27 13:28:28;;;;;;;8.70;3.55;;;;;;;22.06;43.32;95051.50;5090939;28;20074;-71
2023/09/27 13:30:54;;;;;;;7.72;2.90;;;;;;;22.20;42.95;95063.84;5090913;28;20036;-71
2023/09/27 13:33:19;;;;;;;12.80;3.20;;;;;;;21.98;43.13;95067.50;5090602;28;20028;-70
2023/09/27 13:35:45;;;;;;;5.78;2.95;;;;;;;21.96;43.22;95045.75;5091017;28;20032;-70
2023/09/27 13:38:10;;;;;;;10.32;3.17;;;;;;;21.95;43.39;95059.97;5076263;28;20532;-70
2023/09/27 13:40:36;;;;;;;6.13;2.97;;;;;;;21.88;43.09;95053.81;5094708;28;20035;-70
2023/09/27 13:43:01;;;;;;;8.30;2.67;;;;;;;21.88;43.43;95049.34;5092947;28;20482;-70
2023/09/27 13:45:27;;;;;;;6.72;2.97;;;;;;;21.77;43.50;95053.31;5093143;28;20036;-72